Time;durP1;ratioP1;P1;durP2;ratioP2;P2;SDS_P1;SDS_P2;PMS_P1;PMS_P2;Temp;Humidity;BMP_temperature;BMP_pressure;BME280_temperature;BME280_humidity;BME280_pressure;Samples;Min_cycle;Max_cycle;Signal;HPM_P1;HPM_P2
2021/09/07 00:00:27;;;;;;;9.95;5.85;;;;;;;23.62;64.23;102093.66;5087350;28;20047;-68
2021/09/07 00:02:52;;;;;;;8.27;5.82;;;;;;;23.61;64.22;102090.16;5088316;28;20075;-68
2021/09/07 00:05:18;;;;;;;9.15;5.68;;;;;;;23.61;64.24;102090.16;5070008;28;20032;-68
2021/09/07 00:07:43;;;;;;;9.77;5.53;;;;;;;23.62;64.24;102088.28;5088030;28;20040;-67
2021/09/07 00:10:12;;;;;;;9.60;5.40;;;;;;;23.61;63.93;102084.78;5087790;28;20085;-68
2021/09/07 00:12:38;;;;;;;7.70;5.32;;;;;;;23.61;64.09;102090.16;5078262;28;20093;-68
2021/09/07 00:15:07;;;;;;;10.32;5.05;;;;;;;23.60;63.93;102078.59;5087240;28;20123;-68
2021/09/07 00:17:32;;;;;;;8.43;5.20;;;;;;;23.60;64.15;102083.97;5086181;28;20384;-68
2021/09/07 00:19:58;;;;;;;9.15;5.53;;;;;;;23.60;64.03;102077.78;5086980;28;20035;-68
2021/09/07 00:22:23;;;;;;;8.30;5.70;;;;;;;23.61;63.99;102076.75;5086770;28;20055;-68
2021/09/07 00:24:49;;;;;;;9.07;5.70;;;;;;;23.60;63.86;102067.06;5070003;28;20036;-67
2021/09/07 00:27:14;;;;;;;7.82;5.47;;;;;;;23.61;64.06;102068.72;5090444;28;20131;-67
2021/09/07 00:29:40;;;;;;;7.95;5.57;;;;;;;23.60;64.01;102073.25;5090950;28;20130;-67
2021/09/07 00:32:06;;;;;;;9.48;5.40;;;;;;;23.60;63.92;102072.41;5091078;28;20117;-67
2021/09/07 00:34:32;;;;;;;8.00;5.75;;;;;;;23.61;64.03;102079.44;5090774;28;20459;-68
2021/09/07 00:36:58;;;;;;;7.82;5.55;;;;;;;23.61;64.01;102074.06;5072948;28;20032;-68
2021/09/07 00:39:23;;;;;;;9.02;5.97;;;;;;;23.61;63.78;102076.75;5090529;28;20169;-67
2021/09/07 00:41:49;;;;;;;7.90;5.85;;;;;;;23.61;63.96;102063.34;5091316;28;20044;-68
2021/09/07 00:44:17;;;;;;;8.80;6.20;;;;;;;23.61;63.80;102068.72;5091012;28;20081;-68
2021/09/07 00:46:48;;;;;;;9.15;5.57;;;;;;;23.59;63.83;102065.41;5092331;28;20031;-68
2021/09/07 00:49:14;;;;;;;8.23;5.68;;;;;;;23.62;63.81;102066.88;5072783;28;20032;-68
2021/09/07 00:51:41;;;;;;;8.82;5.95;;;;;;;23.60;63.77;102061.69;5056525;28;20549;-69
2021/09/07 00:54:07;;;;;;;10.88;6.03;;;;;;;23.59;63.84;102060.03;5073683;28;20032;-68
2021/09/07 00:56:35;;;;;;;9.68;6.13;;;;;;;23.61;63.57;102060.69;5091098;28;20069;-68
2021/09/07 00:59:02;;;;;;;8.70;5.63;;;;;;;23.61;63.60;102058.00;5082632;28;20028;-68
2021/09/07 01:01:28;;;;;;;9.00;6.10;;;;;;;23.61;63.65;102063.34;5090636;28;20039;-67
2021/09/07 01:03:53;;;;;;;8.50;5.85;;;;;;;23.59;63.35;102057.38;5091223;28;20042;-67
2021/09/07 01:06:19;;;;;;;9.65;6.25;;;;;;;23.60;63.77;102053.66;5087364;28;20119;-67
2021/09/07 01:08:45;;;;;;;9.88;6.78;;;;;;;23.61;63.69;102055.31;5091172;28;20085;-67
2021/09/07 01:11:10;;;;;;;8.98;6.18;;;;;;;23.59;63.67;102055.50;5090461;28;20028;-69
2021/09/07 01:13:36;;;;;;;9.57;6.57;;;;;;;23.61;63.33;102052.63;5072423;28;20664;-68
2021/09/07 01:16:01;;;;;;;10.63;6.38;;;;;;;23.60;63.35;102053.66;5073208;28;20495;-68
2021/09/07 01:18:26;;;;;;;9.55;6.80;;;;;;;23.60;63.40;102045.63;5090723;28;20040;-68
2021/09/07 01:20:52;;;;;;;11.60;7.00;;;;;;;23.60;63.65;102048.31;5089632;28;20391;-68
2021/09/07 01:23:17;;;;;;;9.23;6.60;;;;;;;23.59;63.54;102049.34;5090782;28;20032;-68
2021/09/07 01:25:43;;;;;;;10.30;6.30;;;;;;;23.59;63.41;102047.47;5090947;28;20093;-68
2021/09/07 01:28:12;;;;;;;9.27;6.32;;;;;;;23.60;63.68;102048.31;5072457;28;20387;-68
2021/09/07 01:30:39;;;;;;;7.70;5.63;;;;;;;23.60;63.36;102040.28;5089715;28;20444;-68
2021/09/07 01:33:05;;;;;;;8.65;6.28;;;;;;;23.59;63.36;102042.13;5072859;28;20044;-68
2021/09/07 01:35:30;;;;;;;10.00;6.53;;;;;;;23.60;63.31;102030.38;5090892;28;20852;-68
2021/09/07 01:37:56;;;;;;;10.52;7.28;;;;;;;23.60;63.24;102029.56;5070845;28;20534;-68
2021/09/07 01:40:21;;;;;;;11.13;6.00;;;;;;;23.60;63.35;102026.88;5090015;28;20058;-68
2021/09/07 01:42:47;;;;;;;11.13;7.72;;;;;;;23.59;63.42;102022.53;5072193;28;20052;-68
2021/09/07 01:45:12;;;;;;;11.02;7.10;;;;;;;23.59;63.30;102026.03;5052342;28;20028;-69
2021/09/07 01:47:40;;;;;;;10.93;6.50;;;;;;;23.58;63.22;102027.06;5070027;28;20040;-68
2021/09/07 01:50:06;;;;;;;9.48;6.10;;;;;;;23.60;63.25;102021.53;5070334;28;20052;-68
2021/09/07 01:52:32;;;;;;;10.48;6.88;;;;;;;23.59;63.26;102018.00;5050819;28;20036;-68
2021/09/07 01:54:57;;;;;;;9.88;6.55;;;;;;;23.59;63.33;102018.00;5069737;28;20029;-68
2021/09/07 01:57:22;;;;;;;10.73;6.47;;;;;;;23.59;63.10;102018.00;5069175;28;20024;-68
2021/09/07 01:59:48;;;;;;;10.85;6.75;;;;;;;23.59;63.50;102017.19;5041284;28;20040;-68
2021/09/07 02:02:13;;;;;;;12.93;7.72;;;;;;;23.59;63.04;102014.50;5050711;28;20052;-68
2021/09/07 02:04:39;;;;;;;11.88;7.78;;;;;;;23.60;63.26;102018.84;5069461;28;20028;-68
2021/09/07 02:07:05;;;;;;;10.63;7.13;;;;;;;23.58;63.05;102013.69;5069482;28;20090;-67
2021/09/07 02:09:30;;;;;;;12.50;7.63;;;;;;;23.59;63.20;102019.88;5044275;28;20453;-68
2021/09/07 02:11:56;;;;;;;11.20;7.13;;;;;;;23.59;63.28;102014.50;5051233;28;20449;-68
2021/09/07 02:14:21;;;;;;;10.23;7.55;;;;;;;23.60;63.09;102013.47;5069959;28;20047;-68
2021/09/07 02:16:47;;;;;;;10.00;7.30;;;;;;;23.59;63.22;102009.97;5067155;28;20106;-68
2021/09/07 02:19:13;;;;;;;10.25;7.00;;;;;;;23.59;63.04;102017.19;5059073;28;20111;-67
2021/09/07 02:26:48;;;;;;;11.32;6.95;;;;;;;23.58;63.02;102013.69;5127808;22;20060;-65
2021/09/07 02:29:14;;;;;;;10.88;7.07;;;;;;;23.58;63.25;102004.81;5068478;28;20043;-65
2021/09/07 02:31:39;;;;;;;11.88;8.07;;;;;;;23.58;63.25;102002.13;5080162;28;20047;-65
2021/09/07 02:34:05;;;;;;;10.15;7.07;;;;;;;23.58;62.95;101994.09;5060663;28;20044;-65
2021/09/07 02:36:30;;;;;;;9.73;6.90;;;;;;;23.58;62.91;102002.13;5071177;28;20032;-64
2021/09/07 02:38:56;;;;;;;11.82;7.55;;;;;;;23.58;62.99;102002.97;5088253;28;20040;-65
2021/09/07 02:41:22;;;;;;;10.75;7.10;;;;;;;23.58;63.03;101996.78;5059905;28;20075;-65
2021/09/07 02:43:48;;;;;;;10.43;7.57;;;;;;;23.58;63.00;101999.47;5052484;28;20123;-65
2021/09/07 02:46:13;;;;;;;11.13;6.95;;;;;;;23.58;62.96;102007.50;5058939;28;20033;-65
2021/09/07 02:48:39;;;;;;;10.00;7.40;;;;;;;23.57;62.98;101998.63;5067078;28;20483;-65
2021/09/07 02:51:04;;;;;;;11.13;7.00;;;;;;;23.58;62.68;102002.13;5085611;28;20048;-65
2021/09/07 02:53:30;;;;;;;11.50;6.95;;;;;;;23.57;62.76;101998.63;5088673;28;20063;-64
2021/09/07 02:55:55;;;;;;;11.07;7.55;;;;;;;23.57;63.08;102003.16;5047727;28;20097;-65
2021/09/07 02:58:21;;;;;;;11.57;7.53;;;;;;;23.57;62.89;101995.13;5067546;28;20040;-65
2021/09/07 03:00:46;;;;;;;10.60;7.10;;;;;;;23.58;62.86;101988.75;5064520;28;20086;-64
2021/09/07 03:03:12;;;;;;;11.00;7.28;;;;;;;23.57;62.89;101992.44;5078185;28;20487;-65
2021/09/07 03:05:37;;;;;;;12.70;6.88;;;;;;;23.57;62.66;101989.78;5070084;28;20463;-65
2021/09/07 03:08:03;;;;;;;11.27;7.30;;;;;;;23.57;62.60;101987.91;5062860;28;20135;-65
2021/09/07 03:10:29;;;;;;;11.60;7.88;;;;;;;23.57;62.72;101981.72;5049809;28;20043;-65
2021/09/07 03:12:55;;;;;;;9.98;6.80;;;;;;;23.56;62.78;101980.88;5081607;28;20106;-66
2021/09/07 03:15:24;;;;;;;11.00;7.78;;;;;;;23.56;62.69;101978.19;5061654;28;20049;-65
2021/09/07 03:17:49;;;;;;;10.65;7.15;;;;;;;23.56;62.67;101978.19;5083810;28;20075;-65
2021/09/07 03:20:15;;;;;;;12.02;7.88;;;;;;;23.58;62.85;101978.03;5085428;28;20071;-65
2021/09/07 03:22:40;;;;;;;11.50;7.63;;;;;;;23.57;62.44;101987.09;5083179;28;20387;-65
2021/09/07 03:25:06;;;;;;;13.38;8.85;;;;;;;23.57;62.70;101981.72;5067334;28;20064;-65
2021/09/07 03:27:32;;;;;;;12.25;8.27;;;;;;;23.56;62.99;101983.56;5088468;28;20151;-65
2021/09/07 03:29:57;;;;;;;10.93;7.85;;;;;;;23.57;62.70;101982.56;5086657;28;20555;-65
2021/09/07 03:32:23;;;;;;;10.55;7.72;;;;;;;23.56;62.47;101983.56;5067755;28;20025;-65
2021/09/07 03:34:48;;;;;;;10.85;8.38;;;;;;;23.57;62.62;101973.69;5070562;28;20445;-66
2021/09/07 03:37:14;;;;;;;14.68;10.57;;;;;;;23.56;62.38;101980.06;5088160;28;20102;-65
2021/09/07 03:39:39;;;;;;;13.27;8.70;;;;;;;23.56;62.44;101969.34;5087604;28;20070;-65
2021/09/07 03:42:05;;;;;;;12.05;8.63;;;;;;;23.56;62.79;101974.69;5073989;28;20391;-65
2021/09/07 03:44:30;;;;;;;12.55;8.52;;;;;;;23.55;62.68;101978.41;5041316;28;20127;-65
2021/09/07 03:46:56;;;;;;;11.27;7.90;;;;;;;23.55;62.70;101971.19;5082103;28;20393;-65
2021/09/07 03:49:21;;;;;;;13.43;8.88;;;;;;;23.56;62.71;101975.53;5067347;28;20037;-65
2021/09/07 03:51:47;;;;;;;11.70;8.43;;;;;;;23.56;62.60;101970.16;5081075;28;20463;-64
2021/09/07 03:54:12;;;;;;;11.43;8.23;;;;;;;23.56;62.61;101974.69;5076679;28;20795;-65
2021/09/07 03:56:38;;;;;;;11.00;8.25;;;;;;;23.55;62.36;101965.81;5088116;28;20035;-65
2021/09/07 03:59:04;;;;;;;12.70;8.30;;;;;;;23.55;62.60;101967.69;5081644;28;20036;-66
2021/09/07 04:01:29;;;;;;;11.00;8.70;;;;;;;23.56;62.44;101972.00;5070613;28;20041;-65
2021/09/07 04:03:55;;;;;;;11.70;8.00;;;;;;;23.54;62.53;101969.53;5053605;28;20062;-65
2021/09/07 04:06:21;;;;;;;11.90;7.95;;;;;;;23.54;62.53;101972.22;5082189;28;20047;-65
2021/09/07 04:08:46;;;;;;;10.68;7.95;;;;;;;23.55;62.34;101973.03;5067856;28;20123;-65
2021/09/07 04:11:12;;;;;;;12.80;9.38;;;;;;;23.55;62.68;101971.19;5079031;28;20036;-65
2021/09/07 04:13:37;;;;;;;15.05;9.02;;;;;;;23.54;62.36;101972.22;5066548;28;20674;-65
2021/09/07 04:16:03;;;;;;;12.55;8.63;;;;;;;23.54;62.48;101971.38;5085062;28;20471;-65
2021/09/07 04:18:28;;;;;;;12.50;8.80;;;;;;;23.54;62.25;101964.19;5083506;28;20375;-65
2021/09/07 04:20:54;;;;;;;13.93;9.32;;;;;;;23.54;62.43;101955.31;5071414;28;20454;-65
2021/09/07 04:23:19;;;;;;;10.45;7.90;;;;;;;23.54;62.16;101963.34;5085115;28;20398;-66
2021/09/07 04:25:45;;;;;;;11.30;8.13;;;;;;;23.54;62.41;101963.34;5071967;28;20418;-65
2021/09/07 04:28:10;;;;;;;11.73;7.95;;;;;;;23.53;62.32;101962.53;5072910;28;20066;-65
2021/09/07 04:30:36;;;;;;;11.20;8.57;;;;;;;23.53;62.11;101959.84;5068151;28;20494;-64
2021/09/07 04:33:01;;;;;;;11.13;8.57;;;;;;;23.53;62.25;101964.38;5086814;28;20652;-65
2021/09/07 04:35:27;;;;;;;12.27;7.85;;;;;;;23.53;62.18;101953.66;5090899;28;20036;-65
2021/09/07 04:37:52;;;;;;;10.07;7.50;;;;;;;23.52;62.30;101960.88;5072498;28;20036;-65
2021/09/07 04:40:18;;;;;;;10.93;8.80;;;;;;;23.52;62.38;101954.69;5056181;28;20043;-65
2021/09/07 04:42:43;;;;;;;12.77;9.52;;;;;;;23.53;62.19;101954.50;5082691;28;20470;-65
2021/09/07 04:45:09;;;;;;;11.02;7.72;;;;;;;23.52;62.15;101958.19;5076943;28;20394;-65
2021/09/07 04:47:34;;;;;;;10.35;8.00;;;;;;;23.52;62.20;101958.19;5081465;28;20036;-65
2021/09/07 04:50:00;;;;;;;10.23;7.78;;;;;;;23.52;62.21;101960.88;5084068;28;20039;-65
2021/09/07 04:52:25;;;;;;;12.18;8.55;;;;;;;23.53;61.94;101959.84;5078335;28;20061;-65
2021/09/07 04:54:51;;;;;;;10.23;7.78;;;;;;;23.52;62.27;101962.72;5077138;28;20530;-64
2021/09/07 04:57:16;;;;;;;12.20;8.63;;;;;;;23.52;62.29;101966.22;5085341;28;20024;-65
2021/09/07 04:59:42;;;;;;;10.00;7.82;;;;;;;23.52;62.06;101968.06;5082374;28;20032;-65
2021/09/07 05:02:07;;;;;;;11.48;8.32;;;;;;;23.52;62.12;101966.22;5073912;28;20036;-65
2021/09/07 05:04:33;;;;;;;9.88;7.57;;;;;;;23.52;61.88;101965.41;5071182;28;20040;-65
2021/09/07 05:06:58;;;;;;;9.82;7.25;;;;;;;23.53;62.06;101967.06;5088289;28;20062;-65
2021/09/07 05:09:24;;;;;;;9.98;7.50;;;;;;;23.51;61.95;101969.94;5078474;28;20367;-65
2021/09/07 05:11:50;;;;;;;9.20;7.05;;;;;;;23.52;62.11;101970.75;5085989;28;20367;-65
2021/09/07 05:14:15;;;;;;;9.30;6.95;;;;;;;23.51;61.97;101966.41;5072303;28;20038;-65
2021/09/07 05:16:40;;;;;;;9.07;6.80;;;;;;;23.50;62.09;101960.22;5090360;28;20434;-64
2021/09/07 05:19:07;;;;;;;9.02;6.70;;;;;;;23.51;62.11;101966.41;5072457;28;20135;-65
2021/09/07 05:21:32;;;;;;;8.75;6.85;;;;;;;23.52;61.70;101965.41;5085034;28;20032;-65
2021/09/07 05:23:58;;;;;;;8.85;7.20;;;;;;;23.51;61.93;101969.06;5088412;28;20470;-65
2021/09/07 05:26:23;;;;;;;7.85;6.00;;;;;;;23.49;61.87;101965.75;5077830;28;20056;-65
2021/09/07 05:28:49;;;;;;;8.50;6.50;;;;;;;23.51;61.93;101969.06;5089906;28;20390;-65
2021/09/07 05:31:17;;;;;;;8.65;6.30;;;;;;;23.51;62.01;101971.75;5064970;28;20037;-65
2021/09/07 05:33:42;;;;;;;8.60;6.32;;;;;;;23.50;61.84;101960.22;5071834;28;20466;-65
2021/09/07 05:36:08;;;;;;;8.55;6.53;;;;;;;23.50;61.71;101960.22;5089908;28;20036;-65
2021/09/07 05:38:33;;;;;;;9.27;6.80;;;;;;;23.50;61.91;101954.84;5071868;28;20390;-64
2021/09/07 05:40:59;;;;;;;9.48;7.05;;;;;;;23.50;61.77;101956.72;5080135;28;20124;-65
2021/09/07 05:43:24;;;;;;;8.68;6.78;;;;;;;23.50;61.94;101959.38;5051178;28;20489;-65
2021/09/07 05:45:50;;;;;;;10.18;7.15;;;;;;;23.51;61.68;101966.41;5079542;28;20044;-65
2021/09/07 05:48:15;;;;;;;8.10;6.90;;;;;;;23.51;61.62;101966.41;5075585;28;20046;-65
2021/09/07 05:50:41;;;;;;;8.50;6.70;;;;;;;23.50;61.62;101970.09;5081872;28;20246;-65
2021/09/07 05:53:07;;;;;;;9.40;6.93;;;;;;;23.50;61.97;101967.41;5062298;28;20119;-65
2021/09/07 05:55:33;;;;;;;9.18;7.22;;;;;;;23.50;61.75;101972.78;5083220;28;20036;-65
2021/09/07 05:57:58;;;;;;;10.02;7.00;;;;;;;23.49;61.80;101974.63;5076175;28;20380;-65
2021/09/07 06:00:24;;;;;;;10.35;6.93;;;;;;;23.49;61.90;101963.91;5062282;28;20072;-65
2021/09/07 06:02:52;;;;;;;10.68;7.45;;;;;;;23.50;61.98;101975.44;5068230;28;20035;-66
2021/09/07 06:05:17;;;;;;;9.70;7.07;;;;;;;23.50;61.56;101970.09;5075361;28;20087;-65
2021/09/07 06:07:43;;;;;;;9.40;7.05;;;;;;;23.50;61.82;101972.78;5063570;28;20032;-64
2021/09/07 06:10:09;;;;;;;8.88;6.72;;;;;;;23.50;61.63;101972.78;5078110;28;20032;-65
2021/09/07 06:12:35;;;;;;;9.63;7.10;;;;;;;23.48;61.61;101970.28;5074306;28;20440;-65
2021/09/07 06:15:01;;;;;;;8.18;6.40;;;;;;;23.49;61.55;101968.44;5089703;28;20040;-65
2021/09/07 06:17:27;;;;;;;9.32;6.85;;;;;;;23.49;61.82;101965.75;5089033;28;20032;-65
2021/09/07 06:19:52;;;;;;;9.13;6.82;;;;;;;23.49;61.72;101965.75;5087449;28;20412;-65
2021/09/07 06:22:18;;;;;;;9.02;6.80;;;;;;;23.49;61.55;101971.13;5052104;28;20036;-65
2021/09/07 06:24:43;;;;;;;8.00;6.05;;;;;;;23.49;61.56;101969.28;5088905;28;20036;-65
2021/09/07 06:27:09;;;;;;;8.73;6.30;;;;;;;23.48;61.71;101967.63;5075227;28;20052;-65
2021/09/07 06:29:35;;;;;;;9.02;7.10;;;;;;;23.49;61.41;101965.75;5084689;28;20028;-65
2021/09/07 06:32:00;;;;;;;8.02;6.22;;;;;;;23.48;61.37;101972.97;5076935;28;20032;-64
2021/09/07 06:34:27;;;;;;;10.32;6.60;;;;;;;23.48;61.72;101969.47;5075672;28;20082;-65
2021/09/07 06:36:54;;;;;;;9.48;7.22;;;;;;;23.49;61.64;101968.44;5069795;28;20027;-65
2021/09/07 06:39:20;;;;;;;8.98;6.95;;;;;;;23.48;61.38;101961.44;5077295;28;20037;-65
2021/09/07 06:41:46;;;;;;;9.00;6.32;;;;;;;23.48;61.61;101956.91;5069265;28;20666;-65
2021/09/07 06:44:11;;;;;;;10.63;7.35;;;;;;;23.50;61.44;101962.06;5084074;28;20048;-65
2021/09/07 06:46:37;;;;;;;8.90;6.53;;;;;;;23.48;61.61;101961.44;5074618;28;20039;-65
2021/09/07 06:49:02;;;;;;;9.73;7.05;;;;;;;23.48;61.46;101961.44;5063506;28;20031;-64
2021/09/07 06:51:28;;;;;;;9.93;7.18;;;;;;;23.48;61.66;101961.44;5066936;28;20029;-65
2021/09/07 06:53:53;;;;;;;8.30;6.65;;;;;;;23.48;61.50;101969.47;5087822;28;20040;-65
2021/09/07 06:56:19;;;;;;;10.18;7.00;;;;;;;23.49;61.54;101963.09;5088902;28;20375;-65
2021/09/07 06:58:44;;;;;;;10.38;7.22;;;;;;;23.48;61.48;101961.44;5062531;28;20031;-65
2021/09/07 07:01:10;;;;;;;10.77;7.35;;;;;;;23.48;61.54;101956.06;5078433;28;20797;-65
2021/09/07 07:03:35;;;;;;;10.20;7.47;;;;;;;23.49;61.76;101963.09;5082082;28;20040;-65
2021/09/07 07:06:01;;;;;;;10.52;8.05;;;;;;;23.48;61.64;101974.81;5080625;28;20044;-65
2021/09/07 07:08:26;;;;;;;12.10;8.30;;;;;;;23.48;61.30;101972.16;5079632;28;20408;-65
2021/09/07 07:10:52;;;;;;;10.95;8.15;;;;;;;23.49;61.44;101968.44;5087903;28;20071;-65
2021/09/07 07:13:17;;;;;;;12.23;8.85;;;;;;;23.48;61.43;101961.44;5082869;28;20432;-65
2021/09/07 07:15:43;;;;;;;14.45;9.40;;;;;;;23.47;61.84;101965.97;5036223;28;20033;-65
2021/09/07 07:18:08;;;;;;;13.65;9.48;;;;;;;23.48;61.68;101969.47;5077659;28;20035;-65
2021/09/07 07:20:34;;;;;;;14.43;9.70;;;;;;;23.47;61.67;101975.84;5085312;28;20028;-65
2021/09/07 07:22:59;;;;;;;16.05;10.80;;;;;;;23.46;62.02;101969.66;5077254;28;20059;-67
2021/09/07 07:25:25;;;;;;;15.32;10.35;;;;;;;23.47;62.37;101963.28;5060980;28;20496;-67
2021/09/07 07:27:50;;;;;;;14.52;10.18;;;;;;;23.47;62.15;101968.63;5066471;28;20404;-64
2021/09/07 07:30:16;;;;;;;14.65;10.35;;;;;;;23.47;62.11;101960.59;5029780;28;20041;-65
2021/09/07 07:32:41;;;;;;;24.45;11.85;;;;;;;23.49;62.50;101968.44;5064238;28;20045;-66
2021/09/07 07:35:07;;;;;;;19.10;11.20;;;;;;;23.48;62.50;101964.94;5069334;28;20151;-65
2021/09/07 07:37:33;;;;;;;16.75;11.23;;;;;;;23.48;62.56;101975.66;5071848;28;20093;-66
2021/09/07 07:39:58;;;;;;;21.33;11.23;;;;;;;23.49;62.59;101971.13;5071387;28;20063;-65
2021/09/07 07:42:24;;;;;;;19.45;11.93;;;;;;;23.48;62.50;101972.97;5067654;28;20059;-66
2021/09/07 07:44:49;;;;;;;19.08;11.77;;;;;;;23.48;62.93;101972.97;5063801;28;20115;-66
2021/09/07 07:47:15;;;;;;;19.42;13.02;;;;;;;23.48;62.84;101972.16;5075061;28;20157;-66
2021/09/07 07:49:40;;;;;;;22.65;13.30;;;;;;;23.49;62.70;101974.63;5074548;28;20039;-66
2021/09/07 07:52:06;;;;;;;20.58;12.45;;;;;;;23.48;62.76;101972.97;5068059;28;20041;-65
2021/09/07 07:54:32;;;;;;;22.08;13.68;;;;;;;23.49;62.96;101974.63;5067463;28;20119;-65
2021/09/07 07:56:57;;;;;;;23.88;13.45;;;;;;;23.48;62.77;101964.94;5064670;28;20045;-65
2021/09/07 07:59:23;;;;;;;20.38;12.15;;;;;;;23.48;62.62;101964.94;5073389;28;20041;-64
2021/09/07 08:01:48;;;;;;;17.92;11.43;;;;;;;23.48;62.89;101972.97;5066646;28;20067;-66
2021/09/07 08:04:14;;;;;;;21.33;12.30;;;;;;;23.49;62.83;101974.63;5067195;28;20035;-68
2021/09/07 08:06:40;;;;;;;19.75;12.57;;;;;;;23.50;62.75;101972.78;5066848;28;20123;-65
2021/09/07 08:09:06;;;;;;;19.02;12.45;;;;;;;23.49;62.69;101982.66;5070260;28;20493;-66
2021/09/07 08:11:32;;;;;;;25.15;12.85;;;;;;;23.50;62.99;101986.16;5078078;28;20082;-66
2021/09/07 08:13:58;;;;;;;23.10;13.05;;;;;;;23.50;63.05;101989.66;5069837;28;20037;-66
2021/09/07 08:16:23;;;;;;;23.15;13.02;;;;;;;23.50;63.06;101984.31;5070498;28;20077;-66
2021/09/07 08:18:49;;;;;;;19.70;13.05;;;;;;;23.51;62.97;101985.13;5071024;28;20063;-66
2021/09/07 08:21:14;;;;;;;20.95;12.32;;;;;;;23.51;63.14;101990.50;5070519;28;20104;-66
2021/09/07 08:23:40;;;;;;;23.77;13.25;;;;;;;23.50;63.00;101984.31;5071618;28;20043;-67
2021/09/07 08:26:05;;;;;;;18.83;11.43;;;;;;;23.49;62.97;101977.31;5070473;28;20055;-66
2021/09/07 08:28:31;;;;;;;21.92;13.15;;;;;;;23.50;62.95;101981.63;5071481;28;20040;-66
2021/09/07 08:30:56;;;;;;;20.90;12.55;;;;;;;23.51;63.16;101974.44;5083858;28;20039;-66
2021/09/07 08:33:22;;;;;;;21.25;13.30;;;;;;;23.51;62.94;101971.75;5077656;28;20402;-66
2021/09/07 08:35:47;;;;;;;15.75;10.82;;;;;;;23.52;62.81;101973.44;5080581;28;20043;-64
2021/09/07 08:38:13;;;;;;;19.45;11.63;;;;;;;23.51;62.96;101975.28;5087789;28;20058;-66
2021/09/07 08:40:39;;;;;;;21.95;12.35;;;;;;;23.52;62.89;101984.16;5091512;28;20032;-66
2021/09/07 08:43:06;;;;;;;19.15;12.20;;;;;;;23.53;62.78;101980.44;5090604;28;20050;-65
2021/09/07 08:45:32;;;;;;;19.90;12.45;;;;;;;23.52;63.01;101981.47;5091194;28;20032;-65
2021/09/07 08:47:59;;;;;;;18.70;11.40;;;;;;;23.52;63.16;101976.94;5077777;28;20029;-66
2021/09/07 08:50:26;;;;;;;19.92;12.52;;;;;;;23.54;62.94;101979.41;5090631;28;20024;-66
2021/09/07 08:52:56;;;;;;;19.75;10.75;;;;;;;23.51;62.96;101975.28;5079750;28;20054;-65
2021/09/07 08:55:22;;;;;;;18.90;11.48;;;;;;;23.53;63.02;101977.75;5085717;28;20123;-66
2021/09/07 08:57:47;;;;;;;17.80;11.20;;;;;;;23.53;63.00;101978.59;5080506;28;20119;-66
2021/09/07 09:00:13;;;;;;;17.95;10.93;;;;;;;23.53;62.75;101967.06;5074449;28;20043;-66
2021/09/07 09:02:43;;;;;;;19.45;11.80;;;;;;;23.52;62.84;101968.06;5078558;28;20028;-66
2021/09/07 09:05:10;;;;;;;17.73;11.43;;;;;;;23.53;62.72;101973.25;5076329;28;20036;-66
2021/09/07 09:07:37;;;;;;;17.95;11.63;;;;;;;23.53;62.69;101961.69;5077040;28;20028;-66
2021/09/07 09:10:03;;;;;;;17.00;10.55;;;;;;;23.52;62.79;101962.72;5078418;28;20056;-65
2021/09/07 09:12:30;;;;;;;15.98;11.20;;;;;;;23.53;62.72;101959.84;5089334;28;20021;-66
2021/09/07 09:14:57;;;;;;;16.50;10.57;;;;;;;23.54;62.45;101966.03;5089321;28;20433;-66
2021/09/07 09:17:29;;;;;;;16.77;10.50;;;;;;;23.52;62.48;101974.25;5076331;28;20028;-66
2021/09/07 09:19:56;;;;;;;16.27;10.43;;;;;;;23.53;62.59;101973.25;5090987;28;20036;-66
2021/09/07 09:22:40;;;;;;;18.02;11.07;;;;;;;23.49;62.66;101974.63;5090075;28;20036;-66
2021/09/07 09:25:23;;;;;;;17.30;10.93;;;;;;;23.48;62.52;101966.78;5090584;28;20463;-66
2021/09/07 09:28:08;;;;;;;16.63;9.70;;;;;;;23.48;62.75;101972.97;5089930;28;20100;-66
2021/09/07 09:30:55;;;;;;;15.38;10.07;;;;;;;23.51;62.45;101966.41;5068353;28;20103;-66
2021/09/07 09:33:23;;;;;;;18.23;10.02;;;;;;;23.53;62.49;101967.06;5085871;28;20016;-66
2021/09/07 09:35:52;;;;;;;13.80;9.85;;;;;;;23.54;62.54;101974.06;5069991;28;20028;-66
2021/09/07 09:38:20;;;;;;;13.30;9.25;;;;;;;23.56;62.62;101963.97;5084434;28;20112;-66
2021/09/07 09:40:55;;;;;;;13.85;9.70;;;;;;;23.54;62.35;101964.19;5069043;28;20082;-66
2021/09/07 09:43:23;;;;;;;13.35;9.10;;;;;;;23.57;62.63;101960.31;5086619;28;20028;-66
2021/09/07 09:45:49;;;;;;;13.30;9.15;;;;;;;23.57;62.61;101958.47;5090251;28;20386;-66
2021/09/07 09:48:30;;;;;;;12.68;8.55;;;;;;;23.56;62.59;101958.63;5089673;28;20035;-66
2021/09/07 09:50:58;;;;;;;12.40;8.75;;;;;;;23.58;62.32;101952.06;5089591;28;20425;-66
2021/09/07 09:53:25;;;;;;;11.82;7.78;;;;;;;23.60;62.52;101957.22;5075573;28;20028;-66
2021/09/07 09:55:54;;;;;;;12.15;7.75;;;;;;;23.60;62.23;101944.66;5082582;28;20033;-66
2021/09/07 09:58:22;;;;;;;11.68;8.35;;;;;;;23.60;62.27;101951.88;5082418;28;20119;-67
2021/09/07 10:00:49;;;;;;;9.27;7.15;;;;;;;23.61;62.11;101945.50;5069447;28;20056;-66
2021/09/07 10:03:16;;;;;;;10.60;7.10;;;;;;;23.62;61.90;101936.44;5051938;28;20307;-66
2021/09/07 10:05:43;;;;;;;10.05;7.07;;;;;;;23.63;62.08;101937.25;5083683;28;20131;-66
2021/09/07 10:08:11;;;;;;;10.80;7.30;;;;;;;23.64;61.93;101933.56;5080378;28;20061;-67
2021/09/07 10:10:49;;;;;;;8.80;6.47;;;;;;;23.62;61.89;101940.97;5089647;28;20020;-66
2021/09/07 10:13:16;;;;;;;8.60;6.35;;;;;;;23.64;61.91;101938.91;5078571;28;20474;-66
2021/09/07 10:15:52;;;;;;;7.88;6.38;;;;;;;23.63;61.60;101932.72;5086540;28;20031;-67
2021/09/07 10:18:31;;;;;;;;;;;;;;;23.56;62.16;101931.84;5135864;27;20449;-65
2021/09/07 10:23:02;;;;;;;9.35;6.05;;;;;;;23.65;61.51;101933.34;5126415;28;20236;-65
2021/09/07 10:23:50;;;;;;;9.43;6.15;;;;;;;23.65;61.89;101924.50;5126691;28;20043;-65
2021/09/07 10:26:36;;;;;;;8.98;6.30;;;;;;;23.65;61.70;101922.63;5113123;28;20051;-65
2021/09/07 10:29:02;;;;;;;7.85;5.95;;;;;;;23.65;61.63;101917.28;5115114;27;20040;-65
2021/09/07 10:31:39;;;;;;;7.90;5.60;;;;;;;23.63;61.51;101910.47;5126661;27;20470;-65
2021/09/07 10:34:05;;;;;;;8.02;5.47;;;;;;;23.67;61.83;101904.53;5127120;27;20098;-65
2021/09/07 10:36:35;;;;;;;7.82;5.30;;;;;;;23.66;61.36;101900.19;5126181;27;20111;-65
2021/09/07 10:39:02;;;;;;;7.88;5.70;;;;;;;23.68;61.47;101900.00;5126854;27;20032;-65
2021/09/07 10:41:34;;;;;;;7.80;6.10;;;;;;;23.66;61.29;101899.34;5125114;28;20035;-65
2021/09/07 10:44:04;;;;;;;7.07;5.68;;;;;;;23.67;61.43;101891.16;5124759;28;20020;-65
2021/09/07 10:46:47;;;;;;;7.68;5.93;;;;;;;23.66;61.30;101896.66;5126817;27;20037;-66
2021/09/07 10:49:24;;;;;;;7.22;5.53;;;;;;;23.66;61.22;101896.66;5126792;27;20198;-65
2021/09/07 10:52:11;;;;;;;7.93;5.90;;;;;;;23.64;61.02;101888.84;5126116;27;20080;-65
2021/09/07 10:54:48;;;;;;;8.07;5.90;;;;;;;23.68;60.85;101892.81;5126847;27;20118;-65
2021/09/07 10:57:32;;;;;;;11.27;6.22;;;;;;;23.65;61.00;101895.03;5125804;27;20084;-65
2021/09/07 11:00:09;;;;;;;8.73;5.50;;;;;;;23.68;60.96;101890.13;5126603;27;20041;-64
2021/09/07 11:02:41;;;;;;;8.57;6.28;;;;;;;23.68;61.09;101881.25;5113826;28;20041;-66
2021/09/07 11:05:29;;;;;;;8.65;5.38;;;;;;;23.65;61.18;101887.81;5126362;27;20039;-65
2021/09/07 11:08:01;;;;;;;7.60;5.18;;;;;;;23.69;61.04;101885.59;5125657;28;20496;-66
2021/09/07 11:10:52;;;;;;;8.07;5.53;;;;;;;23.68;61.01;101875.91;5126157;27;20038;-65
2021/09/07 11:13:29;;;;;;;6.65;5.10;;;;;;;23.69;61.00;101864.16;5125729;27;20385;-66
2021/09/07 11:16:05;;;;;;;6.78;5.60;;;;;;;23.70;61.08;101873.84;5125903;27;20023;-66
2021/09/07 11:18:32;;;;;;;8.02;5.70;;;;;;;23.72;61.11;101867.25;5113481;27;20139;-66
2021/09/07 11:21:07;;;;;;;7.50;5.38;;;;;;;23.72;60.96;101877.97;5083334;28;20368;-65
2021/09/07 11:23:35;;;;;;;7.28;5.40;;;;;;;23.73;61.02;101862.72;5097261;28;20161;-65